Time;durP1;ratioP1;P1;durP2;ratioP2;P2;SDS_P1;SDS_P2;PMS_P1;PMS_P2;Temp;Humidity;BMP_temperature;BMP_pressure;BME280_temperature;BME280_humidity;BME280_pressure;Samples;Min_cycle;Max_cycle;Signal;HPM_P1;HPM_P2
2023/03/13 00:01:56;;;;;;;12.87;6.97;;;6.60;99.90;;;;;;5055142;28;20202;-66
2023/03/13 00:04:22;;;;;;;9.00;6.43;;;6.60;99.90;;;;;;5054523;28;20221;-66
2023/03/13 00:06:47;;;;;;;8.10;6.70;;;6.60;99.90;;;;;;5055885;28;20205;-66
2023/03/13 00:09:15;;;;;;;12.87;7.73;;;6.60;99.90;;;;;;5055588;28;20198;-69
2023/03/13 00:11:40;;;;;;;14.00;6.70;;;6.60;99.90;;;;;;5053843;28;20206;-69
2023/03/13 00:14:06;;;;;;;12.67;6.23;;;6.60;99.90;;;;;;5055534;28;20267;-66
2023/03/13 00:16:34;;;;;;;15.87;7.27;;;6.60;99.90;;;;;;5055603;28;20640;-69
2023/03/13 00:19:00;;;;;;;12.87;6.87;;;6.60;99.90;;;;;;5055367;28;20195;-67
2023/03/13 00:21:28;;;;;;;12.37;7.47;;;6.60;99.90;;;;;;5052273;28;20197;-68
2023/03/13 00:23:54;;;;;;;14.03;6.53;;;6.70;99.90;;;;;;5049662;28;20236;-67
2023/03/13 00:26:22;;;;;;;12.50;7.27;;;6.70;99.90;;;;;;5036559;28;20194;-74
2023/03/13 00:28:49;;;;;;;9.97;6.60;;;6.70;99.90;;;;;;5054886;28;20231;-67
2023/03/13 00:31:26;;;;;;;13.00;7.30;;;6.70;99.90;;;;;;5054802;28;20201;-66
2023/03/13 00:33:55;;;;;;;12.53;6.97;;;6.80;99.90;;;;;;5054762;28;20554;-68
2023/03/13 00:36:33;;;;;;;10.57;6.67;;;6.80;99.90;;;;;;5054912;28;20198;-65
2023/03/13 00:38:59;;;;;;;10.40;6.47;;;6.80;99.90;;;;;;5054714;28;20194;-65
2023/03/13 00:41:27;;;;;;;10.63;6.47;;;6.80;99.90;;;;;;5054819;28;20423;-66
2023/03/13 00:43:53;;;;;;;10.50;6.87;;;6.80;99.90;;;;;;5054705;28;20202;-66
2023/03/13 00:46:21;;;;;;;18.13;7.07;;;6.80;99.90;;;;;;5052112;28;20240;-67
2023/03/13 00:48:47;;;;;;;14.43;6.77;;;6.80;99.90;;;;;;5054827;28;20221;-66
2023/03/13 00:51:14;;;;;;;14.67;7.10;;;6.80;99.90;;;;;;5054567;28;20194;-67
2023/03/13 00:53:40;;;;;;;11.60;6.83;;;6.80;99.90;;;;;;5054789;28;20210;-67
2023/03/13 00:56:11;;;;;;;15.67;8.30;;;6.80;99.90;;;;;;5054458;28;20194;-68
2023/03/13 00:58:39;;;;;;;17.37;6.63;;;6.80;99.90;;;;;;5053693;28;20580;-67
2023/03/13 01:01:08;;;;;;;13.40;7.07;;;6.80;99.90;;;;;;5054419;28;20292;-67
2023/03/13 01:03:35;;;;;;;13.43;7.13;;;6.80;99.90;;;;;;5054745;28;20665;-66
2023/03/13 01:06:03;;;;;;;14.37;7.27;;;6.80;99.90;;;;;;5053837;28;20202;-66
2023/03/13 01:08:29;;;;;;;15.80;7.20;;;6.90;99.90;;;;;;5049969;28;20202;-66
2023/03/13 01:10:59;;;;;;;16.27;8.23;;;6.90;99.90;;;;;;5054338;28;20214;-65
2023/03/13 01:13:25;;;;;;;15.83;6.83;;;6.90;99.90;;;;;;5054047;28;20778;-65
2023/03/13 01:15:50;;;;;;;10.80;6.40;;;6.90;99.90;;;;;;5055433;28;20191;-66
2023/03/13 01:18:15;;;;;;;14.63;7.53;;;6.90;99.90;;;;;;5056217;28;20676;-67
2023/03/13 01:20:41;;;;;;;13.37;8.87;;;6.90;99.90;;;;;;5057922;28;20198;-67
2023/03/13 01:23:07;;;;;;;18.13;7.83;;;6.90;99.90;;;;;;5057743;28;20378;-66
2023/03/13 01:25:36;;;;;;;8.77;6.50;;;6.90;99.90;;;;;;5058086;28;20240;-67
2023/03/13 01:28:02;;;;;;;8.23;6.93;;;6.90;99.90;;;;;;5057416;28;20525;-66
2023/03/13 01:30:28;;;;;;;19.77;8.83;;;6.90;99.90;;;;;;5057361;28;20198;-66
2023/03/13 01:32:53;;;;;;;14.57;7.20;;;6.90;99.90;;;;;;5058017;28;20264;-66
2023/03/13 01:35:19;;;;;;;10.87;6.33;;;6.90;99.90;;;;;;5058323;28;20209;-67
2023/03/13 01:37:44;;;;;;;13.80;6.53;;;6.90;99.90;;;;;;5036803;28;20194;-66
2023/03/13 01:40:11;;;;;;;14.20;6.87;;;6.90;99.90;;;;;;5057468;28;20870;-66
2023/03/13 01:42:57;;;;;;;13.27;6.43;;;6.90;99.90;;;;;;5056844;28;20225;-66
2023/03/13 01:46:16;;;;;;;13.47;7.13;;;6.90;99.90;;;;;;5058189;28;20198;-67
2023/03/13 01:48:44;;;;;;;15.13;6.47;;;6.90;99.90;;;;;;5055664;28;20638;-66
2023/03/13 01:51:29;;;;;;;8.37;6.43;;;7.00;99.90;;;;;;5055629;28;20194;-66
2023/03/13 01:54:27;;;;;;;11.57;5.93;;;7.00;99.90;;;;;;5057939;28;20238;-76
2023/03/13 01:57:04;;;;;;;8.57;5.77;;;7.00;99.90;;;;;;5056019;28;20259;-66
2023/03/13 01:59:38;;;;;;;12.33;6.73;;;7.00;99.90;;;;;;5060632;28;20272;-67
2023/03/13 02:02:05;;;;;;;9.23;5.53;;;7.00;99.90;;;;;;5062753;28;20241;-67
2023/03/13 02:04:36;;;;;;;9.43;5.43;;;7.00;99.90;;;;;;5061580;28;20994;-68
2023/03/13 02:07:09;;;;;;;14.87;6.57;;;7.00;99.90;;;;;;5059384;28;20284;-69
2023/03/13 02:09:35;;;;;;;15.07;6.03;;;7.00;99.90;;;;;;5058202;28;20267;-67
2023/03/13 02:12:07;;;;;;;10.80;6.40;;;7.00;99.90;;;;;;5057639;28;20209;-67
2023/03/13 02:14:36;;;;;;;11.23;6.67;;;7.00;99.90;;;;;;5053429;28;20209;-68
2023/03/13 02:17:03;;;;;;;12.13;6.80;;;7.00;99.90;;;;;;5063630;28;20599;-69
2023/03/13 02:19:48;;;;;;;14.43;6.97;;;7.00;99.90;;;;;;5061653;28;20198;-66
2023/03/13 02:22:35;;;;;;;14.00;6.30;;;7.00;99.90;;;;;;5053764;28;20209;-66
2023/03/13 02:25:24;;;;;;;15.53;6.73;;;7.00;99.90;;;;;;5053019;28;20236;-65
2023/03/13 02:28:00;;;;;;;18.63;6.33;;;7.00;99.90;;;;;;5055474;28;20247;-66
2023/03/13 02:30:26;;;;;;;9.40;5.03;;;7.00;99.90;;;;;;5057503;28;20901;-67
2023/03/13 02:32:52;;;;;;;13.17;5.83;;;7.00;99.90;;;;;;5057587;28;20209;-67
2023/03/13 02:35:20;;;;;;;11.77;5.47;;;7.00;99.90;;;;;;5057494;28;20202;-67
2023/03/13 02:37:50;;;;;;;12.30;5.40;;;7.00;99.90;;;;;;5055877;28;20212;-67
2023/03/13 02:40:23;;;;;;;13.20;6.47;;;7.00;99.90;;;;;;5057384;28;20202;-67
2023/03/13 02:42:50;;;;;;;10.40;5.37;;;7.00;99.90;;;;;;5057388;28;20557;-66
2023/03/13 02:45:16;;;;;;;13.37;5.90;;;7.10;99.90;;;;;;5055086;28;20698;-67
2023/03/13 02:47:42;;;;;;;14.03;5.17;;;7.10;99.90;;;;;;5057158;28;20293;-66
2023/03/13 02:50:10;;;;;;;16.17;5.63;;;7.10;99.90;;;;;;5056895;28;20279;-67
2023/03/13 02:52:41;;;;;;;11.60;6.10;;;7.10;99.90;;;;;;5057093;28;20201;-68
2023/03/13 02:55:13;;;;;;;18.10;5.83;;;7.10;99.90;;;;;;5057549;28;20213;-69
2023/03/13 02:57:38;;;;;;;17.57;6.17;;;7.10;99.90;;;;;;5053722;28;20306;-66
2023/03/13 03:00:06;;;;;;;6.47;4.47;;;7.20;99.90;;;;;;5060564;28;20193;-66
2023/03/13 03:02:32;;;;;;;13.57;5.77;;;7.20;99.90;;;;;;5060430;28;20293;-66
2023/03/13 03:04:57;;;;;;;13.40;5.33;;;7.20;99.90;;;;;;5055512;28;20560;-66
2023/03/13 03:07:23;;;;;;;13.37;6.07;;;7.20;99.90;;;;;;5052522;28;20662;-66
2023/03/13 03:09:49;;;;;;;11.43;5.20;;;7.20;99.90;;;;;;5056636;28;20699;-66
2023/03/13 03:12:14;;;;;;;15.00;5.67;;;7.20;99.90;;;;;;5056678;28;20198;-67
2023/03/13 03:14:39;;;;;;;12.40;4.53;;;7.20;99.90;;;;;;5056427;28;20374;-67
2023/03/13 03:17:05;;;;;;;16.63;4.70;;;7.30;99.90;;;;;;5055938;28;20201;-67
2023/03/13 03:19:30;;;;;;;11.23;5.80;;;7.30;99.90;;;;;;5054601;28;20202;-70
2023/03/13 03:21:57;;;;;;;11.67;4.50;;;7.30;99.90;;;;;;5056033;28;20237;-72
2023/03/13 03:24:22;;;;;;;11.83;4.80;;;7.30;99.90;;;;;;5056242;28;20213;-67
2023/03/13 03:26:47;;;;;;;14.33;5.13;;;7.30;99.90;;;;;;5056618;28;20216;-68
2023/03/13 03:29:13;;;;;;;9.60;4.63;;;7.30;99.90;;;;;;5056286;28;20202;-69
2023/03/13 03:31:39;;;;;;;9.50;4.47;;;7.30;99.90;;;;;;5055844;28;20332;-68
2023/03/13 03:34:04;;;;;;;10.83;4.87;;;7.30;99.90;;;;;;5056000;28;20759;-65
2023/03/13 03:36:30;;;;;;;13.83;5.07;;;7.30;99.90;;;;;;5057004;28;20193;-65
2023/03/13 03:38:55;;;;;;;14.50;5.23;;;7.30;99.90;;;;;;5055187;28;20631;-66
2023/03/13 03:41:21;;;;;;;10.27;3.87;;;7.30;99.90;;;;;;5056091;28;20217;-66
2023/03/13 03:43:47;;;;;;;19.60;5.57;;;7.30;99.90;;;;;;5056457;28;20197;-66
2023/03/13 03:46:13;;;;;;;11.60;6.47;;;7.40;99.90;;;;;;5054510;28;20197;-69
2023/03/13 03:48:39;;;;;;;9.73;4.30;;;7.40;99.90;;;;;;5051251;28;20202;-67
2023/03/13 03:51:05;;;;;;;15.10;4.47;;;7.40;99.90;;;;;;5055712;28;20209;-69
2023/03/13 03:53:31;;;;;;;14.83;5.17;;;7.40;99.90;;;;;;5056236;28;20213;-67
2023/03/13 03:55:57;;;;;;;12.00;4.80;;;7.40;99.90;;;;;;5055250;28;20489;-67
2023/03/13 03:58:23;;;;;;;15.80;4.73;;;7.40;99.90;;;;;;5051085;28;20246;-67
2023/03/13 04:00:48;;;;;;;8.67;4.00;;;7.50;99.90;;;;;;5055933;28;20198;-68
2023/03/13 04:03:14;;;;;;;12.80;4.20;;;7.50;99.90;;;;;;5055811;28;20202;-68
2023/03/13 04:05:40;;;;;;;14.63;4.60;;;7.50;99.90;;;;;;5056272;28;20235;-68
2023/03/13 04:08:06;;;;;;;13.73;4.77;;;7.50;99.90;;;;;;5056047;28;20190;-67
2023/03/13 04:10:31;;;;;;;11.90;5.07;;;7.50;99.90;;;;;;5054227;28;20206;-66
2023/03/13 04:12:57;;;;;;;9.00;4.37;;;7.50;99.90;;;;;;5055692;28;20572;-67
2023/03/13 04:15:22;;;;;;;14.87;4.57;;;7.50;99.90;;;;;;5057684;28;20197;-70
2023/03/13 04:17:48;;;;;;;17.93;4.97;;;7.50;99.90;;;;;;5064458;28;20205;-66
2023/03/13 04:20:14;;;;;;;8.20;3.77;;;7.50;99.90;;;;;;5055841;28;20224;-68
2023/03/13 04:22:41;;;;;;;13.60;3.27;;;7.50;99.90;;;;;;5055911;28;20745;-81
2023/03/13 04:25:07;;;;;;;14.97;4.10;;;7.50;99.90;;;;;;5036921;28;20670;-74
2023/03/13 04:27:33;;;;;;;15.43;4.50;;;7.60;99.90;;;;;;5061347;28;20221;-70
2023/03/13 04:29:59;;;;;;;18.13;4.70;;;7.60;99.90;;;;;;5063449;28;20247;-70
2023/03/13 04:32:25;;;;;;;12.93;3.83;;;7.60;99.90;;;;;;5055620;28;20387;-69
2023/03/13 04:34:50;;;;;;;14.43;4.20;;;7.60;99.90;;;;;;5055502;28;20206;-70
2023/03/13 04:37:16;;;;;;;13.93;5.00;;;7.60;99.90;;;;;;5055263;28;20205;-69
2023/03/13 04:39:41;;;;;;;11.33;4.27;;;7.60;99.90;;;;;;5053865;28;20233;-68
2023/03/13 04:42:09;;;;;;;13.20;4.30;;;7.60;99.90;;;;;;5055529;28;20202;-69
2023/03/13 04:44:35;;;;;;;16.67;3.97;;;7.60;99.90;;;;;;5055484;28;20698;-71
2023/03/13 04:47:00;;;;;;;11.60;5.50;;;7.60;99.90;;;;;;5054959;28;20293;-70
2023/03/13 04:49:26;;;;;;;11.20;4.00;;;7.60;99.90;;;;;;5055364;28;20236;-69
2023/03/13 04:51:51;;;;;;;14.30;4.47;;;7.60;99.90;;;;;;5056212;28;20221;-68
2023/03/13 04:54:17;;;;;;;10.23;4.17;;;7.70;99.90;;;;;;5058978;28;20735;-70
2023/03/13 04:56:42;;;;;;;12.63;4.37;;;7.60;99.90;;;;;;5059448;28;20229;-73
2023/03/13 04:59:10;;;;;;;21.47;5.90;;;7.70;99.90;;;;;;5059052;28;21087;-71
2023/03/13 05:01:35;;;;;;;15.97;4.67;;;7.70;99.90;;;;;;5064032;28;20213;-72
2023/03/13 05:04:01;;;;;;;12.10;4.27;;;7.70;99.90;;;;;;5066193;28;20193;-71
2023/03/13 05:06:26;;;;;;;9.43;4.23;;;7.70;99.90;;;;;;5066963;28;20201;-72
2023/03/13 05:08:52;;;;;;;13.93;3.87;;;7.70;99.90;;;;;;5065160;28;20202;-71
2023/03/13 05:11:17;;;;;;;10.87;4.37;;;7.70;99.90;;;;;;5067889;28;20958;-71
2023/03/13 05:13:43;;;;;;;11.20;4.27;;;7.70;99.90;;;;;;5061381;28;20210;-70
2023/03/13 05:16:08;;;;;;;14.03;4.27;;;7.70;99.90;;;;;;5067815;28;20219;-71
2023/03/13 05:18:34;;;;;;;15.70;4.63;;;7.70;99.90;;;;;;5063043;28;20241;-70
2023/03/13 05:21:00;;;;;;;11.53;4.43;;;7.70;99.90;;;;;;5068475;28;20198;-71
2023/03/13 05:23:26;;;;;;;7.23;4.07;;;7.70;99.90;;;;;;5063958;28;20229;-71
2023/03/13 05:25:52;;;;;;;12.27;6.13;;;7.80;99.90;;;;;;5064111;28;20267;-70
2023/03/13 05:28:17;;;;;;;11.00;4.80;;;7.70;99.90;;;;;;5062583;28;20200;-72
2023/03/13 05:30:43;;;;;;;17.53;4.73;;;7.70;99.90;;;;;;5065502;28;20201;-75
2023/03/13 05:33:08;;;;;;;15.40;4.20;;;7.70;99.90;;;;;;5064170;28;20251;-70
2023/03/13 05:35:34;;;;;;;14.27;5.00;;;7.70;99.90;;;;;;5064103;28;20194;-72
2023/03/13 05:37:59;;;;;;;8.90;3.57;;;7.70;99.90;;;;;;5062953;28;20194;-71
2023/03/13 05:40:25;;;;;;;16.33;4.43;;;7.70;99.90;;;;;;5063275;28;20320;-71
2023/03/13 05:42:50;;;;;;;9.03;4.07;;;7.60;99.90;;;;;;5062762;28;20198;-70
2023/03/13 05:45:16;;;;;;;19.57;5.47;;;7.60;99.90;;;;;;5066308;28;20621;-70
2023/03/13 05:47:41;;;;;;;14.57;4.63;;;7.60;99.90;;;;;;5063412;28;20197;-73
2023/03/13 05:50:07;;;;;;;15.23;4.33;;;7.60;99.90;;;;;;5063522;28;20202;-73
2023/03/13 05:52:33;;;;;;;10.90;3.90;;;7.60;99.90;;;;;;5057343;28;20605;-70
2023/03/13 05:54:59;;;;;;;17.07;4.77;;;7.70;99.90;;;;;;5056823;28;20221;-66
2023/03/13 05:57:24;;;;;;;12.60;4.33;;;7.60;99.90;;;;;;5057033;28;20281;-66
2023/03/13 05:59:50;;;;;;;11.67;4.00;;;7.60;99.90;;;;;;5057091;28;20538;-65
2023/03/13 06:02:15;;;;;;;19.87;6.90;;;7.70;99.90;;;;;;5056644;28;20190;-66
2023/03/13 06:04:41;;;;;;;12.13;4.60;;;7.70;99.90;;;;;;5055093;28;20334;-65
2023/03/13 06:07:07;;;;;;;18.07;4.77;;;7.60;99.90;;;;;;5057071;28;20781;-65
2023/03/13 06:09:32;;;;;;;18.27;4.47;;;7.60;99.90;;;;;;5057029;28;20213;-65
2023/03/13 06:11:58;;;;;;;15.93;4.27;;;7.60;99.90;;;;;;5056822;28;20202;-65
2023/03/13 06:14:23;;;;;;;11.13;4.20;;;7.60;99.90;;;;;;5055209;28;20218;-67
2023/03/13 06:16:49;;;;;;;16.60;6.00;;;7.70;99.90;;;;;;5056666;28;20541;-67
2023/03/13 06:19:14;;;;;;;16.87;4.40;;;7.70;99.90;;;;;;5056717;28;20233;-66
2023/03/13 06:21:41;;;;;;;21.07;4.40;;;7.70;99.90;;;;;;5056433;28;20532;-68
2023/03/13 06:24:06;;;;;;;15.77;4.53;;;7.70;99.90;;;;;;5018291;28;1105622;-67
2023/03/13 06:26:32;;;;;;;16.93;5.50;;;7.70;99.90;;;;;;5057744;28;20352;-65
2023/03/13 06:28:57;;;;;;;17.67;4.73;;;7.70;99.90;;;;;;5055951;28;20255;-66
2023/03/13 06:31:23;;;;;;;12.90;4.47;;;7.70;99.90;;;;;;5057645;28;20265;-66
2023/03/13 06:33:52;;;;;;;17.00;4.57;;;7.70;99.90;;;;;;5057513;28;20222;-66
2023/03/13 06:36:18;;;;;;;13.77;5.03;;;7.70;99.90;;;;;;5057252;28;20614;-66
2023/03/13 06:38:43;;;;;;;9.00;4.60;;;7.70;99.90;;;;;;5057470;28;20206;-66
2023/03/13 06:41:09;;;;;;;12.80;4.93;;;7.70;99.90;;;;;;5055700;28;20704;-66
2023/03/13 06:43:34;;;;;;;14.37;4.23;;;7.80;99.90;;;;;;5057835;28;20229;-66
2023/03/13 06:46:04;;;;;;;11.43;4.37;;;7.80;99.90;;;;;;5057256;28;20225;-65
2023/03/13 06:48:29;;;;;;;13.33;4.50;;;7.80;99.90;;;;;;5057458;28;20201;-66
2023/03/13 06:50:55;;;;;;;12.83;4.87;;;7.90;99.90;;;;;;5057405;28;20210;-65
2023/03/13 06:53:21;;;;;;;13.13;4.90;;;7.90;99.90;;;;;;5055073;28;20241;-65
2023/03/13 06:55:47;;;;;;;12.67;4.90;;;8.00;99.90;;;;;;5037187;28;20206;-65
2023/03/13 06:58:13;;;;;;;13.73;3.60;;;8.00;99.90;;;;;;5057063;28;20213;-65
2023/03/13 07:00:39;;;;;;;12.10;5.47;;;8.00;99.90;;;;;;5057327;28;20194;-65
2023/03/13 07:03:05;;;;;;;16.80;4.70;;;8.10;99.90;;;;;;5057024;28;20196;-65
2023/03/13 07:05:30;;;;;;;9.77;4.00;;;8.20;99.90;;;;;;5055320;28;20190;-65
2023/03/13 07:07:56;;;;;;;11.30;4.00;;;8.20;99.90;;;;;;5057225;28;20272;-65
2023/03/13 07:10:21;;;;;;;18.03;5.47;;;8.20;99.90;;;;;;5056801;28;20224;-65
2023/03/13 07:12:47;;;;;;;13.03;4.57;;;8.20;99.90;;;;;;5056704;28;20191;-66
2023/03/13 07:15:12;;;;;;;11.27;4.43;;;8.20;99.90;;;;;;5056297;28;20679;-67
2023/03/13 07:17:38;;;;;;;13.57;3.90;;;8.20;99.90;;;;;;5055274;28;20201;-66
2023/03/13 07:20:05;;;;;;;11.60;4.23;;;8.20;99.90;;;;;;5056569;28;20248;-67
2023/03/13 07:22:31;;;;;;;19.63;5.57;;;8.20;99.90;;;;;;5056932;28;20627;-66
2023/03/13 07:24:56;;;;;;;13.43;3.90;;;8.20;99.90;;;;;;5056360;28;20647;-66
2023/03/13 07:27:22;;;;;;;11.90;4.13;;;8.20;99.90;;;;;;5056748;28;20533;-66
2023/03/13 07:29:48;;;;;;;18.00;5.00;;;8.20;99.90;;;;;;5057020;28;20194;-65
2023/03/13 07:32:14;;;;;;;14.67;4.60;;;8.20;99.90;;;;;;5054854;28;20959;-64
2023/03/13 07:34:43;;;;;;;11.83;3.50;;;8.20;99.90;;;;;;5056483;28;20217;-67
2023/03/13 07:37:10;;;;;;;16.60;4.50;;;8.20;99.90;;;;;;5056790;28;20186;-66
2023/03/13 07:39:35;;;;;;;17.47;5.80;;;8.20;99.90;;;;;;5056721;28;20684;-65
2023/03/13 07:42:01;;;;;;;13.80;4.07;;;8.30;99.90;;;;;;5056588;28;20189;-65
2023/03/13 07:44:26;;;;;;;18.13;4.40;;;8.30;99.90;;;;;;5054480;28;20202;-65
2023/03/13 07:46:52;;;;;;;14.60;5.20;;;8.40;99.90;;;;;;5056324;28;20865;-66
2023/03/13 07:49:17;;;;;;;9.60;3.90;;;8.40;99.90;;;;;;5056360;28;20202;-65
2023/03/13 07:51:46;;;;;;;18.03;6.00;;;8.40;99.90;;;;;;5056511;28;20197;-66
2023/03/13 07:54:12;;;;;;;15.90;4.87;;;8.50;99.90;;;;;;5055689;28;20239;-66
2023/03/13 07:56:37;;;;;;;13.77;4.97;;;8.60;99.90;;;;;;5051277;28;21063;-65
2023/03/13 07:59:03;;;;;;;18.03;4.57;;;8.60;99.90;;;;;;5055988;28;20263;-65
2023/03/13 08:01:28;;;;;;;19.07;4.80;;;8.60;99.90;;;;;;5056097;28;20200;-65
2023/03/13 08:03:55;;;;;;;16.63;3.93;;;8.60;99.90;;;;;;5056411;28;20209;-66
2023/03/13 08:06:23;;;;;;;14.27;4.70;;;8.60;99.90;;;;;;5053768;28;20605;-66
2023/03/13 08:08:49;;;;;;;14.97;4.20;;;8.60;99.90;;;;;;5055814;28;20691;-66
2023/03/13 08:11:18;;;;;;;17.20;4.77;;;8.60;99.90;;;;;;5055725;28;20234;-66
2023/03/13 08:13:44;;;;;;;15.13;4.43;;;8.70;99.90;;;;;;5055896;28;20301;-66
2023/03/13 08:16:16;;;;;;;12.23;4.17;;;8.70;99.90;;;;;;5053892;28;20286;-65
2023/03/13 08:18:43;;;;;;;11.50;4.57;;;8.70;99.90;;;;;;5055747;28;20225;-65
2023/03/13 08:21:12;;;;;;;16.07;4.73;;;8.60;99.90;;;;;;5055807;28;20259;-66
2023/03/13 08:23:38;;;;;;;18.23;4.93;;;8.70;99.90;;;;;;5055726;28;20225;-66
2023/03/13 08:26:06;;;;;;;13.70;4.10;;;8.70;99.90;;;;;;5053717;28;20962;-65
2023/03/13 08:28:31;;;;;;;13.53;3.87;;;8.70;99.90;;;;;;5055426;28;20213;-66
2023/03/13 08:30:57;;;;;;;17.87;4.90;;;8.70;99.90;;;;;;5055656;28;20559;-64
2023/03/13 08:33:23;;;;;;;19.23;5.53;;;8.60;99.90;;;;;;5055873;28;20194;-64
2023/03/13 08:35:48;;;;;;;13.43;4.03;;;8.60;99.90;;;;;;5032636;28;20186;-65
2023/03/13 08:38:14;;;;;;;9.37;3.87;;;8.60;99.90;;;;;;5055411;28;20198;-65
2023/03/13 08:40:39;;;;;;;14.07;4.50;;;8.60;99.90;;;;;;5055651;28;20442;-66
2023/03/13 08:43:05;;;;;;;14.80;4.47;;;8.70;99.90;;;;;;5055612;28;20614;-66
2023/03/13 08:45:30;;;;;;;13.63;3.77;;;8.80;99.90;;;;;;5055729;28;20190;-66
2023/03/13 08:47:56;;;;;;;10.80;4.83;;;8.80;99.90;;;;;;5056050;28;20194;-65
2023/03/13 08:50:21;;;;;;;9.97;3.33;;;8.80;99.90;;;;;;5053567;28;20217;-65
2023/03/13 08:52:47;;;;;;;12.17;4.03;;;8.90;99.90;;;;;;5055818;28;20193;-66
2023/03/13 08:55:12;;;;;;;8.40;4.53;;;8.90;99.90;;;;;;5056633;28;20700;-66
2023/03/13 08:57:38;;;;;;;10.97;3.90;;;8.90;99.90;;;;;;5055583;28;20260;-69
2023/03/13 09:00:05;;;;;;;10.83;3.80;;;8.90;99.90;;;;;;5055497;28;20198;-69
2023/03/13 09:02:31;;;;;;;12.67;4.13;;;9.00;99.90;;;;;;5054464;28;20321;-75
2023/03/13 09:04:56;;;;;;;14.10;4.23;;;9.00;99.90;;;;;;5053905;28;20571;-67
2023/03/13 09:07:23;;;;;;;5.80;3.27;;;9.20;99.90;;;;;;5054166;28;20248;-65
2023/03/13 09:09:48;;;;;;;15.00;3.93;;;9.40;99.90;;;;;;5055822;28;20284;-66
2023/03/13 09:12:14;;;;;;;11.17;4.13;;;9.50;99.90;;;;;;5055241;28;20676;-66
2023/03/13 09:14:39;;;;;;;8.63;3.27;;;9.60;99.90;;;;;;5054142;28;20218;-66
2023/03/13 09:17:05;;;;;;;12.70;4.27;;;9.70;99.90;;;;;;5052939;28;20615;-65
2023/03/13 09:19:30;;;;;;;8.90;3.70;;;9.80;99.90;;;;;;5053339;28;20202;-66
2023/03/13 09:21:56;;;;;;;9.93;3.80;;;9.80;99.90;;;;;;5054882;28;20670;-67
2023/03/13 09:24:21;;;;;;;15.80;3.57;;;9.80;99.90;;;;;;5054934;28;20921;-66
2023/03/13 09:26:47;;;;;;;11.53;3.50;;;9.80;99.90;;;;;;5055165;28;20216;-67
2023/03/13 09:29:13;;;;;;;12.97;4.17;;;9.80;99.90;;;;;;5050816;28;20225;-67
2023/03/13 09:31:40;;;;;;;6.57;3.37;;;9.80;99.90;;;;;;5053472;28;20205;-66
2023/03/13 09:34:05;;;;;;;12.33;4.57;;;9.90;99.90;;;;;;5055353;28;20206;-67
2023/03/13 09:36:31;;;;;;;5.83;2.80;;;9.90;99.90;;;;;;5055591;28;20190;-67
2023/03/13 09:38:58;;;;;;;7.37;3.13;;;9.90;99.90;;;;;;5056808;28;20224;-67
2023/03/13 09:41:41;;;;;;;5.47;3.03;;;10.00;99.90;;;;;;5056123;28;20190;-65
2023/03/13 09:44:19;;;;;;;9.47;2.77;;;10.00;99.90;;;;;;5058762;28;20288;-67
2023/03/13 09:46:59;;;;;;;9.23;3.53;;;10.00;99.90;;;;;;5056638;28;20679;-67
2023/03/13 09:49:39;;;;;;;7.03;2.80;;;10.10;99.90;;;;;;5058873;28;20292;-67
2023/03/13 09:52:14;;;;;;;7.07;3.50;;;10.10;99.90;;;;;;5058684;28;20327;-68
2023/03/13 09:54:47;;;;;;;12.50;3.20;;;10.20;99.90;;;;;;5053659;28;20233;-66
2023/03/13 09:57:33;;;;;;;9.30;2.90;;;10.20;99.90;;;;;;5051140;28;20499;-67
2023/03/13 10:00:12;;;;;;;6.80;2.03;;;10.20;99.90;;;;;;5058169;28;20249;-67
2023/03/13 10:02:39;;;;;;;9.93;3.07;;;10.30;99.90;;;;;;5058200;28;20209;-66
2023/03/13 10:05:16;;;;;;;8.60;3.03;;;10.40;99.90;;;;;;5058328;28;20201;-67
2023/03/13 10:07:42;;;;;;;6.27;2.90;;;10.40;99.90;;;;;;5055694;28;20210;-66
2023/03/13 10:10:33;;;;;;;9.60;3.50;;;10.40;99.90;;;;;;5058465;28;20203;-67
2023/03/13 10:13:09;;;;;;;8.23;2.57;;;10.40;99.90;;;;;;5057153;28;20199;-73
2023/03/13 10:15:48;;;;;;;14.17;3.00;;;10.50;99.90;;;;;;5058075;28;20199;-67
2023/03/13 10:18:22;;;;;;;5.20;2.67;;;10.50;99.90;;;;;;5053565;28;20631;-67
2023/03/13 10:20:55;;;;;;;8.00;3.07;;;10.60;99.90;;;;;;5054781;28;20213;-65
2023/03/13 10:23:45;;;;;;;6.07;2.47;;;10.60;99.90;;;;;;5053419;28;20370;-65
2023/03/13 10:26:18;;;;;;;10.43;2.83;;;10.70;99.90;;;;;;5051236;28;20225;-64
2023/03/13 10:28:43;;;;;;;7.13;3.10;;;10.80;99.90;;;;;;5053456;28;20630;-65
2023/03/13 10:31:31;;;;;;;4.63;2.70;;;10.90;99.90;;;;;;5057341;28;20290;-65
2023/03/13 10:34:07;;;;;;;7.43;3.23;;;10.90;99.90;;;;;;5050741;28;20226;-66
2023/03/13 10:36:40;;;;;;;7.83;3.50;;;11.00;99.90;;;;;;5055438;28;20571;-65
2023/03/13 10:39:13;;;;;;;8.60;3.13;;;11.10;99.90;;;;;;5055441;28;20208;-65
2023/03/13 10:41:38;;;;;;;5.67;3.40;;;11.10;99.90;;;;;;5056754;28;20696;-66
2023/03/13 10:44:29;;;;;;;7.37;2.83;;;11.30;99.90;;;;;;5056732;28;20207;-65
2023/03/13 10:47:00;;;;;;;7.50;2.60;;;11.40;99.90;;;;;;5056647;28;20718;-66
2023/03/13 10:49:25;;;;;;;3.73;1.97;;;11.50;99.90;;;;;;5053803;28;20202;-65
2023/03/13 10:51:58;;;;;;;4.50;2.27;;;11.60;99.90;;;;;;5057147;28;20209;-66
2023/03/13 10:54:36;;;;;;;4.47;1.80;;;11.70;99.90;;;;;;5056700;28;20737;-65
2023/03/13 10:57:27;;;;;;;3.93;2.00;;;11.90;99.90;;;;;;5056142;28;20190;-67
2023/03/13 10:59:53;;;;;;;6.27;1.87;;;12.20;99.90;;;;;;5056070;28;20251;-67
2023/03/13 11:02:37;;;;;;;8.00;2.50;;;12.20;99.90;;;;;;5054467;28;20281;-66
2023/03/13 11:05:23;;;;;;;6.90;1.97;;;12.30;99.90;;;;;;5054263;28;20194;-66
2023/03/13 11:07:49;;;;;;;2.83;1.90;;;12.30;99.90;;;;;;5055416;28;20224;-76
2023/03/13 11:10:20;;;;;;;3.63;1.80;;;12.40;99.90;;;;;;5056139;28;20698;-71
2023/03/13 11:12:50;;;;;;;2.97;1.70;;;12.60;99.90;;;;;;5052960;28;20270;-72
2023/03/13 11:15:19;;;;;;;3.67;2.00;;;12.90;99.90;;;;;;5056534;28;20212;-73
2023/03/13 11:17:56;;;;;;;3.03;1.63;;;13.10;99.90;;;;;;5054497;28;20199;-72
2023/03/13 11:20:25;;;;;;;4.03;1.43;;;13.30;99.90;;;;;;5053634;28;20205;-72
2023/03/13 11:23:27;;;;;;;4.00;1.60;;;13.40;99.90;;;;;;5054025;28;20212;-72
2023/03/13 11:32:21;;;;;;;1.07;1.03;;;13.60;99.90;;;;;;5017803;28;20233;-71
2023/03/13 11:34:52;;;;;;;3.27;1.80;;;13.60;99.90;;;;;;4994694;28;20732;-70
2023/03/13 11:37:20;;;;;;;3.67;1.30;;;13.60;99.90;;;;;;4993543;28;20572;-72
2023/03/13 11:40:19;;;;;;;1.87;1.37;;;13.70;99.90;;;;;;4995786;28;20899;-71
2023/03/13 11:42:47;;;;;;;3.70;1.40;;;13.70;99.90;;;;;;4997016;28;20304;-73
2023/03/13 11:45:38;;;;;;;1.70;1.37;;;13.70;99.90;;;;;;4996509;28;20229;-75
2023/03/13 11:48:27;;;;;;;3.90;1.67;;;13.80;99.90;;;;;;4995724;28;20758;-73
2023/03/13 11:51:33;;;;;;;5.63;1.67;;;13.70;99.90;;;;;;4995760;28;20558;-74
2023/03/13 11:54:41;;;;;;;1.60;1.23;;;13.70;99.90;;;;;;4994492;28;20805;-75
2023/03/13 11:57:17;;;;;;;3.93;1.50;;;13.70;99.90;;;;;;4993980;28;20209;-74
2023/03/13 12:00:12;;;;;;;3.13;1.37;;;13.80;99.90;;;;;;4996288;28;20784;-72
2023/03/13 12:02:50;;;;;;;3.90;1.73;;;13.80;99.90;;;;;;4995652;28;20196;-72
2023/03/13 12:05:19;;;;;;;3.43;1.47;;;13.90;99.90;;;;;;4995048;28;20306;-72
2023/03/13 12:07:51;;;;;;;2.60;1.30;;;14.00;99.90;;;;;;4995976;28;20196;-72
2023/03/13 12:10:22;;;;;;;2.10;0.97;;;14.00;99.90;;;;;;4994533;28;20196;-72
2023/03/13 12:12:54;;;;;;;0.80;0.80;;;14.10;99.90;;;;;;4996378;28;20213;-72
2023/03/13 12:15:33;;;;;;;2.27;0.97;;;14.30;99.90;;;;;;4996815;28;20575;-71
2023/03/13 12:18:16;;;;;;;2.83;0.87;;;14.40;99.90;;;;;;4995712;28;20896;-72
2023/03/13 12:21:03;;;;;;;1.77;0.90;;;14.50;99.90;;;;;;4994018;28;20200;-71
2023/03/13 12:23:43;;;;;;;3.43;1.20;;;14.50;99.90;;;;;;4998321;28;20617;-75
2023/03/13 12:26:15;;;;;;;1.40;1.10;;;14.50;99.90;;;;;;4995425;28;20777;-76
2023/03/13 12:28:59;;;;;;;3.90;1.10;;;14.60;99.90;;;;;;4996191;28;20307;-73
2023/03/13 12:31:32;;;;;;;2.47;1.00;;;14.60;99.90;;;;;;4976992;28;20231;-77
2023/03/13 12:34:26;;;;;;;1.50;1.13;;;14.50;99.90;;;;;;4990133;28;20232;-67
2023/03/13 12:37:01;;;;;;;1.37;1.00;;;14.80;99.90;;;;;;4995317;28;20208;-66
2023/03/13 12:39:33;;;;;;;3.37;1.43;;;15.30;99.90;;;;;;4992289;28;20372;-64
2023/03/13 12:42:22;;;;;;;3.53;0.90;;;15.40;99.90;;;;;;4993955;28;20540;-62
2023/03/13 12:44:47;;;;;;;1.07;0.90;;;15.30;99.90;;;;;;4994797;28;20600;-80
2023/03/13 12:47:31;;;;;;;0.70;0.70;;;15.00;99.90;;;;;;4996343;28;20213;-79
2023/03/13 12:50:26;;;;;;;4.80;0.87;;;15.00;99.90;;;;;;4996354;28;20226;-78
2023/03/13 12:52:55;;;;;;;2.20;1.20;;;15.70;99.90;;;;;;4993359;28;20666;-78
2023/03/13 12:55:46;;;;;;;1.70;0.70;;;16.20;99.90;;;;;;4986484;28;20217;-78
2023/03/13 12:58:24;;;;;;;1.63;0.67;;;16.70;99.90;;;;;;4989026;28;20276;-77
2023/03/13 13:00:51;;;;;;;1.50;1.10;;;17.00;99.90;;;;;;4985613;28;20527;-77
2023/03/13 13:03:25;;;;;;;1.33;0.77;;;17.10;99.90;;;;;;4985816;28;20210;-79
2023/03/13 13:06:06;;;;;;;1.40;1.00;;;16.70;99.90;;;;;;4983217;28;20796;-79
2023/03/13 13:08:42;;;;;;;0.90;0.90;;;16.30;99.90;;;;;;4986029;28;20696;-81